sensor_id;sensor_type;location;lat;lon;timestamp;pressure;altitude;pressure_sealevel;temperature;humidity
6132;BME280;3097;42.692;23.278;2023-09-30T00:02:06;95411.28;;;16.77;70.66
6132;BME280;3097;42.692;23.278;2023-09-30T00:04:32;95442.19;;;16.95;71.06
6132;BME280;3097;42.692;23.278;2023-09-30T00:06:58;95439.81;;;16.93;70.78
6132;BME280;3097;42.692;23.278;2023-09-30T00:09:23;95436.19;;;16.94;70.81
6132;BME280;3097;42.692;23.278;2023-09-30T00:11:49;95427.00;;;16.87;70.83
6132;BME280;3097;42.692;23.278;2023-09-30T00:14:14;95431.78;;;17.00;70.51
6132;BME280;3097;42.692;23.278;2023-09-30T00:16:40;95439.69;;;17.05;69.98
6132;BME280;3097;42.692;23.278;2023-09-30T00:19:05;95437.59;;;17.07;70.16
6132;BME280;3097;42.692;23.278;2023-09-30T00:21:31;95434.75;;;17.09;70.63
6132;BME280;3097;42.692;23.278;2023-09-30T00:23:56;95430.88;;;17.11;70.39
6132;BME280;3097;42.692;23.278;2023-09-30T00:26:22;95432.69;;;17.11;70.11
6132;BME280;3097;42.692;23.278;2023-09-30T00:28:48;95433.50;;;17.16;69.89
6132;BME280;3097;42.692;23.278;2023-09-30T00:31:13;95431.69;;;17.17;70.00
6132;BME280;3097;42.692;23.278;2023-09-30T00:33:40;95426.47;;;17.17;70.18
6132;BME280;3097;42.692;23.278;2023-09-30T00:36:09;95431.44;;;17.18;70.22
6132;BME280;3097;42.692;23.278;2023-09-30T00:38:39;95414.25;;;17.17;70.14
6132;BME280;3097;42.692;23.278;2023-09-30T00:41:06;95419.44;;;17.17;69.89
6132;BME280;3097;42.692;23.278;2023-09-30T00:43:32;95422.59;;;17.19;70.14
6132;BME280;3097;42.692;23.278;2023-09-30T00:48:38;95405.84;;;17.10;70.11
6132;BME280;3097;42.692;23.278;2023-09-30T00:51:04;95423.19;;;17.26;69.88
6132;BME280;3097;42.692;23.278;2023-09-30T00:53:30;95424.50;;;17.29;70.12
6132;BME280;3097;42.692;23.278;2023-09-30T00:55:57;95400.66;;;17.15;69.89
6132;BME280;3097;42.692;23.278;2023-09-30T00:58:25;95418.50;;;17.28;70.13
6132;BME280;3097;42.692;23.278;2023-09-30T01:00:56;95422.72;;;17.34;70.30
6132;BME280;3097;42.692;23.278;2023-09-30T01:03:22;95421.13;;;17.33;70.45
6132;BME280;3097;42.692;23.278;2023-09-30T01:05:48;95383.19;;;17.11;70.41
6132;BME280;3097;42.692;23.278;2023-09-30T01:08:15;95418.53;;;17.33;70.46
6132;BME280;3097;42.692;23.278;2023-09-30T01:10:41;95409.13;;;17.32;70.09
6132;BME280;3097;42.692;23.278;2023-09-30T01:13:07;95419.06;;;17.35;69.98
6132;BME280;3097;42.692;23.278;2023-09-30T01:15:32;95393.41;;;17.22;69.93
6132;BME280;3097;42.692;23.278;2023-09-30T01:17:58;95413.31;;;17.33;70.25
6132;BME280;3097;42.692;23.278;2023-09-30T01:20:24;95407.56;;;17.31;70.28
6132;BME280;3097;42.692;23.278;2023-09-30T01:22:49;95414.34;;;17.32;70.03
6132;BME280;3097;42.692;23.278;2023-09-30T01:25:15;95412.00;;;17.31;70.24
6132;BME280;3097;42.692;23.278;2023-09-30T01:27:41;95385.50;;;17.07;70.48
6132;BME280;3097;42.692;23.278;2023-09-30T01:30:07;95410.69;;;17.28;70.63
6132;BME280;3097;42.692;23.278;2023-09-30T01:32:36;95414.09;;;17.29;71.03
6132;BME280;3097;42.692;23.278;2023-09-30T01:35:02;95420.06;;;17.29;70.94
6132;BME280;3097;42.692;23.278;2023-09-30T01:37:28;95410.41;;;17.30;71.31
6132;BME280;3097;42.692;23.278;2023-09-30T01:39:53;95415.91;;;17.28;71.16
6132;BME280;3097;42.692;23.278;2023-09-30T01:42:20;95418.19;;;17.25;71.07
6132;BME280;3097;42.692;23.278;2023-09-30T01:44:46;95413.75;;;17.20;71.42
6132;BME280;3097;42.692;23.278;2023-09-30T01:47:11;95386.78;;;17.05;71.76
6132;BME280;3097;42.692;23.278;2023-09-30T01:49:37;95414.78;;;17.19;71.58
6132;BME280;3097;42.692;23.278;2023-09-30T01:52:03;95413.25;;;17.23;71.46
6132;BME280;3097;42.692;23.278;2023-09-30T01:54:28;95417.41;;;17.24;71.62
6132;BME280;3097;42.692;23.278;2023-09-30T01:56:54;95410.34;;;17.20;71.74
6132;BME280;3097;42.692;23.278;2023-09-30T01:59:19;95407.25;;;17.23;71.69
6132;BME280;3097;42.692;23.278;2023-09-30T02:01:44;95394.41;;;17.11;71.30
6132;BME280;3097;42.692;23.278;2023-09-30T02:04:11;95389.19;;;17.11;71.71
6132;BME280;3097;42.692;23.278;2023-09-30T02:06:43;95407.50;;;17.21;71.57
6132;BME280;3097;42.692;23.278;2023-09-30T02:09:09;95405.41;;;17.23;71.23
6132;BME280;3097;42.692;23.278;2023-09-30T02:11:35;95411.66;;;17.22;71.65
6132;BME280;3097;42.692;23.278;2023-09-30T02:14:04;95403.81;;;17.17;71.28
6132;BME280;3097;42.692;23.278;2023-09-30T02:16:31;95405.59;;;17.12;71.83
6132;BME280;3097;42.692;23.278;2023-09-30T02:18:58;95406.09;;;17.09;71.78
6132;BME280;3097;42.692;23.278;2023-09-30T02:21:23;95414.69;;;17.09;71.33
6132;BME280;3097;42.692;23.278;2023-09-30T02:23:49;95405.81;;;17.05;71.21
6132;BME280;3097;42.692;23.278;2023-09-30T02:26:15;95407.31;;;17.01;71.56
6132;BME280;3097;42.692;23.278;2023-09-30T02:28:41;95418.50;;;16.96;71.53
6132;BME280;3097;42.692;23.278;2023-09-30T02:31:06;95414.31;;;16.95;71.30
6132;BME280;3097;42.692;23.278;2023-09-30T02:33:33;95383.63;;;16.71;71.41
6132;BME280;3097;42.692;23.278;2023-09-30T02:36:01;95415.00;;;16.86;71.21
6132;BME280;3097;42.692;23.278;2023-09-30T02:38:27;95417.09;;;16.84;70.94
6132;BME280;3097;42.692;23.278;2023-09-30T02:40:54;95414.94;;;16.76;71.19
6132;BME280;3097;42.692;23.278;2023-09-30T02:43:19;95414.34;;;16.69;71.18
6132;BME280;3097;42.692;23.278;2023-09-30T02:45:45;95421.09;;;16.70;71.55
6132;BME280;3097;42.692;23.278;2023-09-30T02:48:11;95415.56;;;16.61;71.06
6132;BME280;3097;42.692;23.278;2023-09-30T02:50:37;95408.69;;;16.55;71.41
6132;BME280;3097;42.692;23.278;2023-09-30T02:53:04;95408.63;;;16.50;71.50
6132;BME280;3097;42.692;23.278;2023-09-30T02:55:30;95409.81;;;16.37;71.50
6132;BME280;3097;42.692;23.278;2023-09-30T02:57:56;95412.34;;;16.32;72.22
6132;BME280;3097;42.692;23.278;2023-09-30T03:00:23;95409.69;;;16.27;72.27
6132;BME280;3097;42.692;23.278;2023-09-30T03:02:55;95380.91;;;16.12;72.07
6132;BME280;3097;42.692;23.278;2023-09-30T03:05:22;95409.69;;;16.27;72.17
6132;BME280;3097;42.692;23.278;2023-09-30T03:07:49;95419.03;;;16.23;72.18
6132;BME280;3097;42.692;23.278;2023-09-30T03:10:16;95415.91;;;16.26;72.41
6132;BME280;3097;42.692;23.278;2023-09-30T03:12:48;95412.47;;;16.20;72.33
6132;BME280;3097;42.692;23.278;2023-09-30T03:15:14;95408.50;;;16.13;73.00
6132;BME280;3097;42.692;23.278;2023-09-30T03:17:42;95414.25;;;16.15;72.60
6132;BME280;3097;42.692;23.278;2023-09-30T03:20:09;95409.50;;;16.12;72.90
6132;BME280;3097;42.692;23.278;2023-09-30T03:22:41;95377.47;;;15.84;73.52
6132;BME280;3097;42.692;23.278;2023-09-30T03:25:11;95411.22;;;16.01;73.46
6132;BME280;3097;42.692;23.278;2023-09-30T03:27:37;95408.31;;;15.98;73.59
6132;BME280;3097;42.692;23.278;2023-09-30T03:30:07;95408.25;;;15.93;73.84
6132;BME280;3097;42.692;23.278;2023-09-30T03:32:33;95401.16;;;15.88;74.19
6132;BME280;3097;42.692;23.278;2023-09-30T03:35:01;95409.97;;;15.87;74.51
6132;BME280;3097;42.692;23.278;2023-09-30T03:37:27;95395.91;;;15.83;74.23
6132;BME280;3097;42.692;23.278;2023-09-30T03:39:56;95409.44;;;15.85;74.80
6132;BME280;3097;42.692;23.278;2023-09-30T03:42:22;95394.50;;;15.75;74.75
6132;BME280;3097;42.692;23.278;2023-09-30T03:44:47;95406.25;;;15.78;75.11
6132;BME280;3097;42.692;23.278;2023-09-30T03:47:16;95411.13;;;15.74;74.87
6132;BME280;3097;42.692;23.278;2023-09-30T03:49:42;95404.13;;;15.75;75.22
6132;BME280;3097;42.692;23.278;2023-09-30T03:52:09;95403.31;;;15.74;74.98
6132;BME280;3097;42.692;23.278;2023-09-30T03:54:36;95392.38;;;15.72;74.96
6132;BME280;3097;42.692;23.278;2023-09-30T03:57:03;95371.53;;;15.50;74.96
6132;BME280;3097;42.692;23.278;2023-09-30T03:59:29;95408.63;;;15.63;75.55
6132;BME280;3097;42.692;23.278;2023-09-30T04:01:55;95401.00;;;15.56;75.41
6132;BME280;3097;42.692;23.278;2023-09-30T04:04:23;95405.53;;;15.49;76.18
6132;BME280;3097;42.692;23.278;2023-09-30T04:06:48;95408.63;;;15.46;76.18
6132;BME280;3097;42.692;23.278;2023-09-30T04:09:16;95407.59;;;15.47;75.89
6132;BME280;3097;42.692;23.278;2023-09-30T04:11:42;95408.56;;;15.41;76.36
6132;BME280;3097;42.692;23.278;2023-09-30T04:14:09;95389.50;;;15.19;76.73
6132;BME280;3097;42.692;23.278;2023-09-30T04:16:36;95411.06;;;15.36;76.54
6132;BME280;3097;42.692;23.278;2023-09-30T04:19:03;95385.09;;;15.19;76.37
6132;BME280;3097;42.692;23.278;2023-09-30T04:21:28;95411.47;;;15.28;76.53
6132;BME280;3097;42.692;23.278;2023-09-30T04:23:55;95409.66;;;15.28;76.73
6132;BME280;3097;42.692;23.278;2023-09-30T04:26:22;95412.47;;;15.27;76.40
6132;BME280;3097;42.692;23.278;2023-09-30T04:28:47;95430.44;;;15.28;76.32
6132;BME280;3097;42.692;23.278;2023-09-30T04:31:13;95428.84;;;15.27;76.50
6132;BME280;3097;42.692;23.278;2023-09-30T04:33:38;95423.34;;;15.24;76.33
6132;BME280;3097;42.692;23.278;2023-09-30T04:36:06;95421.22;;;15.21;76.60
6132;BME280;3097;42.692;23.278;2023-09-30T04:38:34;95427.75;;;15.23;76.29
6132;BME280;3097;42.692;23.278;2023-09-30T04:40:59;95431.16;;;15.24;76.54
6132;BME280;3097;42.692;23.278;2023-09-30T04:43:26;95430.66;;;15.27;76.29
6132;BME280;3097;42.692;23.278;2023-09-30T04:45:54;95439.97;;;15.23;76.35
6132;BME280;3097;42.692;23.278;2023-09-30T04:48:23;95440.53;;;15.25;76.38
6132;BME280;3097;42.692;23.278;2023-09-30T04:50:48;95442.41;;;15.29;76.30
6132;BME280;3097;42.692;23.278;2023-09-30T04:53:14;95449.16;;;15.30;76.07
6132;BME280;3097;42.692;23.278;2023-09-30T04:55:42;95448.44;;;15.35;76.13
6132;BME280;3097;42.692;23.278;2023-09-30T04:58:08;95440.53;;;15.25;75.86
6132;BME280;3097;42.692;23.278;2023-09-30T05:00:34;95442.16;;;15.31;75.67
6132;BME280;3097;42.692;23.278;2023-09-30T05:03:00;95444.03;;;15.35;75.64
6132;BME280;3097;42.692;23.278;2023-09-30T05:05:26;95446.75;;;15.40;75.85
6132;BME280;3097;42.692;23.278;2023-09-30T05:07:51;95448.84;;;15.43;75.68
6132;BME280;3097;42.692;23.278;2023-09-30T05:10:17;95450.25;;;15.51;75.31
6132;BME280;3097;42.692;23.278;2023-09-30T05:12:43;95453.00;;;15.56;75.60
6132;BME280;3097;42.692;23.278;2023-09-30T05:15:15;95456.22;;;15.63;74.75
6132;BME280;3097;42.692;23.278;2023-09-30T05:17:42;95418.47;;;15.44;75.37
6132;BME280;3097;42.692;23.278;2023-09-30T05:20:09;95423.34;;;15.57;75.44
6132;BME280;3097;42.692;23.278;2023-09-30T05:22:39;95454.34;;;15.80;74.87
6132;BME280;3097;42.692;23.278;2023-09-30T05:25:10;95452.88;;;15.84;74.65
6132;BME280;3097;42.692;23.278;2023-09-30T05:27:36;95453.25;;;15.93;74.82
6132;BME280;3097;42.692;23.278;2023-09-30T05:30:04;95451.44;;;15.94;74.94
6132;BME280;3097;42.692;23.278;2023-09-30T05:32:31;95458.03;;;16.01;74.34
6132;BME280;3097;42.692;23.278;2023-09-30T05:34:56;95457.78;;;16.03;74.81
6132;BME280;3097;42.692;23.278;2023-09-30T05:37:24;95423.31;;;15.91;74.17
6132;BME280;3097;42.692;23.278;2023-09-30T05:39:50;95440.91;;;16.05;73.98
6132;BME280;3097;42.692;23.278;2023-09-30T05:42:16;95466.66;;;16.23;73.92
6132;BME280;3097;42.692;23.278;2023-09-30T05:44:44;95451.97;;;16.17;73.48
6132;BME280;3097;42.692;23.278;2023-09-30T05:47:09;95474.25;;;16.30;72.79
6132;BME280;3097;42.692;23.278;2023-09-30T05:49:35;95470.13;;;16.34;73.04
6132;BME280;3097;42.692;23.278;2023-09-30T05:52:02;95447.16;;;16.26;73.77
6132;BME280;3097;42.692;23.278;2023-09-30T05:54:27;95473.50;;;16.56;73.01
6132;BME280;3097;42.692;23.278;2023-09-30T05:56:54;95438.53;;;16.47;72.06
6132;BME280;3097;42.692;23.278;2023-09-30T05:59:19;95474.06;;;16.80;71.29
6132;BME280;3097;42.692;23.278;2023-09-30T06:01:45;95469.94;;;16.84;71.23
6132;BME280;3097;42.692;23.278;2023-09-30T06:04:11;95476.25;;;16.88;71.77
6132;BME280;3097;42.692;23.278;2023-09-30T06:06:37;95479.13;;;16.92;72.28
6132;BME280;3097;42.692;23.278;2023-09-30T06:09:04;95469.22;;;16.89;72.19
6132;BME280;3097;42.692;23.278;2023-09-30T06:11:33;95431.50;;;16.70;72.20
6132;BME280;3097;42.692;23.278;2023-09-30T06:13:59;95493.44;;;17.16;72.52
6132;BME280;3097;42.692;23.278;2023-09-30T06:16:26;95444.69;;;17.44;70.93
6132;BME280;3097;42.692;23.278;2023-09-30T06:18:53;95478.81;;;18.88;66.79
6132;BME280;3097;42.692;23.278;2023-09-30T06:21:24;95481.19;;;20.22;62.51
6132;BME280;3097;42.692;23.278;2023-09-30T06:23:50;95476.69;;;21.41;57.89
6132;BME280;3097;42.692;23.278;2023-09-30T06:26:18;95476.59;;;22.56;54.61
6132;BME280;3097;42.692;23.278;2023-09-30T06:28:44;95465.56;;;23.34;51.36
6132;BME280;3097;42.692;23.278;2023-09-30T06:31:10;95473.63;;;24.21;49.72
6132;BME280;3097;42.692;23.278;2023-09-30T06:33:37;95479.06;;;24.93;46.88
6132;BME280;3097;42.692;23.278;2023-09-30T06:36:13;95456.78;;;25.44;45.94
6132;BME280;3097;42.692;23.278;2023-09-30T06:38:43;95483.78;;;26.16;44.22
6132;BME280;3097;42.692;23.278;2023-09-30T06:41:08;95480.84;;;26.49;43.06
6132;BME280;3097;42.692;23.278;2023-09-30T06:43:34;95483.91;;;26.99;42.91
6132;BME280;3097;42.692;23.278;2023-09-30T06:46:07;95471.97;;;27.27;41.75
6132;BME280;3097;42.692;23.278;2023-09-30T06:48:35;95476.63;;;27.65;41.03
6132;BME280;3097;42.692;23.278;2023-09-30T06:51:01;95468.56;;;28.17;39.27
6132;BME280;3097;42.692;23.278;2023-09-30T06:53:27;95478.66;;;28.61;37.95
6132;BME280;3097;42.692;23.278;2023-09-30T06:55:53;95479.84;;;29.02;36.63
6132;BME280;3097;42.692;23.278;2023-09-30T06:58:18;95476.97;;;29.48;36.71
6132;BME280;3097;42.692;23.278;2023-09-30T07:00:50;95487.13;;;30.00;35.18
6132;BME280;3097;42.692;23.278;2023-09-30T07:03:16;95477.97;;;30.10;35.53
6132;BME280;3097;42.692;23.278;2023-09-30T07:05:42;95486.97;;;30.42;34.89
6132;BME280;3097;42.692;23.278;2023-09-30T07:08:09;95486.97;;;30.78;33.26
6132;BME280;3097;42.692;23.278;2023-09-30T07:10:34;95491.88;;;30.88;32.29
6132;BME280;3097;42.692;23.278;2023-09-30T07:13:04;95482.97;;;30.84;32.44
6132;BME280;3097;42.692;23.278;2023-09-30T07:15:31;95493.19;;;30.94;33.76
6132;BME280;3097;42.692;23.278;2023-09-30T07:17:57;95487.88;;;30.70;33.13
6132;BME280;3097;42.692;23.278;2023-09-30T07:20:22;95489.97;;;30.28;32.82
6132;BME280;3097;42.692;23.278;2023-09-30T07:22:48;95491.03;;;30.02;34.16
6132;BME280;3097;42.692;23.278;2023-09-30T07:25:14;95474.63;;;29.68;34.16
6132;BME280;3097;42.692;23.278;2023-09-30T07:27:46;95487.06;;;29.55;34.09
6132;BME280;3097;42.692;23.278;2023-09-30T07:30:13;95486.47;;;29.37;34.35
6132;BME280;3097;42.692;23.278;2023-09-30T07:32:43;95493.22;;;29.26;33.79
6132;BME280;3097;42.692;23.278;2023-09-30T07:35:10;95490.72;;;29.09;34.52
6132;BME280;3097;42.692;23.278;2023-09-30T07:37:36;95468.50;;;28.93;34.06
6132;BME280;3097;42.692;23.278;2023-09-30T07:40:02;95487.91;;;28.84;34.43
6132;BME280;3097;42.692;23.278;2023-09-30T07:42:27;95487.19;;;28.75;35.00
6132;BME280;3097;42.692;23.278;2023-09-30T07:44:53;95484.84;;;28.65;33.97
6132;BME280;3097;42.692;23.278;2023-09-30T07:47:19;95494.81;;;28.47;36.51
6132;BME280;3097;42.692;23.278;2023-09-30T07:49:44;95488.72;;;28.47;34.75
6132;BME280;3097;42.692;23.278;2023-09-30T07:52:10;95492.75;;;28.53;34.77
6132;BME280;3097;42.692;23.278;2023-09-30T07:54:36;95462.19;;;28.47;36.28
6132;BME280;3097;42.692;23.278;2023-09-30T07:57:01;95489.31;;;28.82;35.93
6132;BME280;3097;42.692;23.278;2023-09-30T07:59:27;95471.53;;;28.82;35.53
6132;BME280;3097;42.692;23.278;2023-09-30T08:01:52;95491.81;;;29.08;34.64
6132;BME280;3097;42.692;23.278;2023-09-30T08:04:18;95494.09;;;28.59;32.52
6132;BME280;3097;42.692;23.278;2023-09-30T08:06:44;95493.91;;;28.35;34.76
6132;BME280;3097;42.692;23.278;2023-09-30T08:09:12;95475.44;;;28.09;33.92
6132;BME280;3097;42.692;23.278;2023-09-30T08:11:38;95495.09;;;27.99;33.39
6132;BME280;3097;42.692;23.278;2023-09-30T08:14:04;95489.50;;;27.84;34.61
6132;BME280;3097;42.692;23.278;2023-09-30T08:16:37;95470.19;;;27.83;34.49
6132;BME280;3097;42.692;23.278;2023-09-30T08:19:03;95489.16;;;28.02;35.38
6132;BME280;3097;42.692;23.278;2023-09-30T08:21:29;95491.34;;;28.18;34.31
6132;BME280;3097;42.692;23.278;2023-09-30T08:23:56;95493.81;;;28.23;32.40
6132;BME280;3097;42.692;23.278;2023-09-30T08:26:22;95492.25;;;28.13;32.12
6132;BME280;3097;42.692;23.278;2023-09-30T08:28:48;95496.03;;;28.03;33.30
6132;BME280;3097;42.692;23.278;2023-09-30T08:31:14;95490.00;;;27.86;33.11
6132;BME280;3097;42.692;23.278;2023-09-30T08:33:39;95491.06;;;27.93;33.81
6132;BME280;3097;42.692;23.278;2023-09-30T08:36:10;95493.56;;;27.90;33.44
6132;BME280;3097;42.692;23.278;2023-09-30T08:38:38;95492.47;;;27.82;31.88
6132;BME280;3097;42.692;23.278;2023-09-30T08:41:04;95485.66;;;27.64;31.27
6132;BME280;3097;42.692;23.278;2023-09-30T08:43:30;95483.94;;;27.33;32.37
6132;BME280;3097;42.692;23.278;2023-09-30T08:46:00;95483.47;;;27.23;32.80
6132;BME280;3097;42.692;23.278;2023-09-30T08:48:28;95483.47;;;27.06;31.55
6132;BME280;3097;42.692;23.278;2023-09-30T08:50:54;95491.88;;;26.90;32.81
6132;BME280;3097;42.692;23.278;2023-09-30T08:53:23;95485.28;;;26.88;31.71
6132;BME280;3097;42.692;23.278;2023-09-30T08:55:52;95482.91;;;26.61;30.64
6132;BME280;3097;42.692;23.278;2023-09-30T08:58:19;95484.88;;;26.46;31.83
6132;BME280;3097;42.692;23.278;2023-09-30T09:00:45;95478.69;;;26.51;31.54
6132;BME280;3097;42.692;23.278;2023-09-30T09:03:11;95483.78;;;26.47;31.36
6132;BME280;3097;42.692;23.278;2023-09-30T09:05:36;95477.88;;;26.11;31.94
6132;BME280;3097;42.692;23.278;2023-09-30T09:08:02;95469.34;;;26.14;33.45
6132;BME280;3097;42.692;23.278;2023-09-30T09:10:27;95470.66;;;26.25;32.59
6132;BME280;3097;42.692;23.278;2023-09-30T09:12:58;95469.50;;;26.17;32.44
6132;BME280;3097;42.692;23.278;2023-09-30T09:15:26;95470.22;;;26.09;32.02
6132;BME280;3097;42.692;23.278;2023-09-30T09:17:52;95461.13;;;25.85;32.49
6132;BME280;3097;42.692;23.278;2023-09-30T09:20:22;95465.44;;;25.80;32.59
6132;BME280;3097;42.692;23.278;2023-09-30T09:22:53;95468.16;;;25.67;31.88
6132;BME280;3097;42.692;23.278;2023-09-30T09:25:22;95444.31;;;25.36;32.09
6132;BME280;3097;42.692;23.278;2023-09-30T09:27:51;95457.94;;;25.29;32.32
6132;BME280;3097;42.692;23.278;2023-09-30T09:30:24;95459.84;;;25.15;32.17
6132;BME280;3097;42.692;23.278;2023-09-30T09:35:20;95462.25;;;25.03;33.48
6132;BME280;3097;42.692;23.278;2023-09-30T09:38:03;95456.28;;;24.97;33.34
6132;BME280;3097;42.692;23.278;2023-09-30T09:40:33;95432.94;;;24.91;34.69
6132;BME280;3097;42.692;23.278;2023-09-30T09:43:00;95457.34;;;25.10;33.11
6132;BME280;3097;42.692;23.278;2023-09-30T09:45:28;95453.91;;;25.10;33.56
6132;BME280;3097;42.692;23.278;2023-09-30T09:47:54;95458.00;;;25.16;33.15
6132;BME280;3097;42.692;23.278;2023-09-30T09:50:22;95451.69;;;25.03;33.31
6132;BME280;3097;42.692;23.278;2023-09-30T09:52:49;95445.28;;;24.95;33.26
6132;BME280;3097;42.692;23.278;2023-09-30T09:55:20;95445.28;;;24.95;33.97
6132;BME280;3097;42.692;23.278;2023-09-30T09:57:47;95441.06;;;24.94;33.82
6132;BME280;3097;42.692;23.278;2023-09-30T10:00:22;95447.19;;;24.90;34.11
6132;BME280;3097;42.692;23.278;2023-09-30T10:02:49;95443.09;;;24.97;33.95
6132;BME280;3097;42.692;23.278;2023-09-30T10:05:15;95441.13;;;24.89;33.88
6132;BME280;3097;42.692;23.278;2023-09-30T10:08:03;95438.91;;;24.83;33.89
6132;BME280;3097;42.692;23.278;2023-09-30T10:10:30;95433.63;;;24.83;34.50
6132;BME280;3097;42.692;23.278;2023-09-30T10:13:00;95428.75;;;24.76;33.92
6132;BME280;3097;42.692;23.278;2023-09-30T10:18:00;95418.03;;;24.59;35.21
6132;BME280;3097;42.692;23.278;2023-09-30T10:20:31;95409.16;;;24.68;34.73
6132;BME280;3097;42.692;23.278;2023-09-30T10:23:22;95416.34;;;24.77;34.71
6132;BME280;3097;42.692;23.278;2023-09-30T10:26:13;95420.41;;;24.60;34.99
6132;BME280;3097;42.692;23.278;2023-09-30T10:28:41;95421.06;;;24.66;34.43
6132;BME280;3097;42.692;23.278;2023-09-30T10:31:20;95409.16;;;24.68;33.79
6132;BME280;3097;42.692;23.278;2023-09-30T10:36:32;95416.59;;;24.53;31.95
6132;BME280;3097;42.692;23.278;2023-09-30T10:38:59;95415.91;;;24.61;31.60
6132;BME280;3097;42.692;23.278;2023-09-30T10:49:49;95406.34;;;24.65;31.19
6132;BME280;3097;42.692;23.278;2023-09-30T10:52:22;95403.34;;;24.58;31.08
6132;BME280;3097;42.692;23.278;2023-09-30T10:54:50;95392.94;;;24.61;31.43
6132;BME280;3097;42.692;23.278;2023-09-30T10:57:36;95399.97;;;24.66;31.37
6132;BME280;3097;42.692;23.278;2023-09-30T11:00:10;95402.59;;;24.80;30.85
6132;BME280;3097;42.692;23.278;2023-09-30T11:02:48;95387.06;;;24.78;30.62
6132;BME280;3097;42.692;23.278;2023-09-30T11:05:14;95393.09;;;24.79;30.45
6132;BME280;3097;42.692;23.278;2023-09-30T11:07:41;95373.66;;;24.75;30.46
6132;BME280;3097;42.692;23.278;2023-09-30T11:10:07;95377.72;;;24.58;30.77
6132;BME280;3097;42.692;23.278;2023-09-30T11:12:33;95378.88;;;24.66;31.33
6132;BME280;3097;42.692;23.278;2023-09-30T11:15:04;95382.25;;;24.58;31.19
6132;BME280;3097;42.692;23.278;2023-09-30T11:17:29;95383.19;;;24.62;30.63
6132;BME280;3097;42.692;23.278;2023-09-30T11:19:55;95367.38;;;24.62;30.21
6132;BME280;3097;42.692;23.278;2023-09-30T11:22:21;95380.47;;;24.53;30.80
6132;BME280;3097;42.692;23.278;2023-09-30T11:24:46;95377.91;;;24.62;30.41
6132;BME280;3097;42.692;23.278;2023-09-30T11:27:12;95294.72;;;24.06;30.92
6132;BME280;3097;42.692;23.278;2023-09-30T11:29:48;95377.53;;;24.55;30.89
6132;BME280;3097;42.692;23.278;2023-09-30T11:32:23;95373.84;;;24.56;31.67
6132;BME280;3097;42.692;23.278;2023-09-30T11:34:52;95361.16;;;24.58;31.88
6132;BME280;3097;42.692;23.278;2023-09-30T11:37:18;95363.44;;;24.73;31.20
6132;BME280;3097;42.692;23.278;2023-09-30T11:39:43;95367.75;;;24.69;31.01
6132;BME280;3097;42.692;23.278;2023-09-30T11:42:16;95363.66;;;24.63;31.08
6132;BME280;3097;42.692;23.278;2023-09-30T11:44:46;95362.31;;;24.52;31.65
6132;BME280;3097;42.692;23.278;2023-09-30T11:47:13;95360.03;;;24.59;32.02
6132;BME280;3097;42.692;23.278;2023-09-30T11:49:42;95358.59;;;24.53;31.99
6132;BME280;3097;42.692;23.278;2023-09-30T11:52:13;95356.47;;;24.55;32.52
6132;BME280;3097;42.692;23.278;2023-09-30T11:54:44;95351.19;;;24.55;32.32
6132;BME280;3097;42.692;23.278;2023-09-30T11:57:12;95338.50;;;24.57;33.43
6132;BME280;3097;42.692;23.278;2023-09-30T11:59:41;95340.41;;;24.65;32.30
6132;BME280;3097;42.692;23.278;2023-09-30T12:02:10;95347.84;;;24.63;32.38
6132;BME280;3097;42.692;23.278;2023-09-30T12:04:37;95335.44;;;24.63;31.79
6132;BME280;3097;42.692;23.278;2023-09-30T12:07:02;95325.56;;;24.69;31.76
6132;BME280;3097;42.692;23.278;2023-09-30T12:09:28;95311.94;;;24.53;31.71
6132;BME280;3097;42.692;23.278;2023-09-30T12:11:55;95245.38;;;24.12;32.12
6132;BME280;3097;42.692;23.278;2023-09-30T12:14:23;95325.84;;;24.67;32.21
6132;BME280;3097;42.692;23.278;2023-09-30T12:16:49;95331.81;;;24.73;31.63
6132;BME280;3097;42.692;23.278;2023-09-30T12:19:16;95319.31;;;24.65;31.60
6132;BME280;3097;42.692;23.278;2023-09-30T12:21:44;95320.63;;;24.76;31.77
6132;BME280;3097;42.692;23.278;2023-09-30T12:24:12;95315.84;;;24.78;31.28
6132;BME280;3097;42.692;23.278;2023-09-30T12:26:43;95316.72;;;24.74;31.65
6132;BME280;3097;42.692;23.278;2023-09-30T12:29:10;95314.22;;;24.68;32.24
6132;BME280;3097;42.692;23.278;2023-09-30T12:31:36;95306.97;;;24.74;31.42
6132;BME280;3097;42.692;23.278;2023-09-30T12:34:01;95322.19;;;24.77;31.96
6132;BME280;3097;42.692;23.278;2023-09-30T12:36:27;95315.72;;;24.83;31.96
6132;BME280;3097;42.692;23.278;2023-09-30T12:38:53;95312.13;;;24.79;31.68
6132;BME280;3097;42.692;23.278;2023-09-30T12:41:18;95304.53;;;24.78;31.77
6132;BME280;3097;42.692;23.278;2023-09-30T12:43:44;95301.28;;;24.81;31.20
6132;BME280;3097;42.692;23.278;2023-09-30T12:46:10;95295.25;;;24.80;31.43
6132;BME280;3097;42.692;23.278;2023-09-30T12:48:39;95303.31;;;24.84;31.37
6132;BME280;3097;42.692;23.278;2023-09-30T12:51:04;95299.41;;;24.81;31.19
6132;BME280;3097;42.692;23.278;2023-09-30T12:53:34;95293.53;;;24.84;31.02
6132;BME280;3097;42.692;23.278;2023-09-30T12:56:00;95297.56;;;24.82;31.73
6132;BME280;3097;42.692;23.278;2023-09-30T12:58:26;95295.00;;;24.90;30.79
6132;BME280;3097;42.692;23.278;2023-09-30T13:00:55;95296.19;;;24.84;31.06
6132;BME280;3097;42.692;23.278;2023-09-30T13:03:20;95280.84;;;24.86;31.01
6132;BME280;3097;42.692;23.278;2023-09-30T13:05:46;95295.59;;;24.87;30.27
6132;BME280;3097;42.692;23.278;2023-09-30T13:08:11;95286.72;;;24.83;30.33
6132;BME280;3097;42.692;23.278;2023-09-30T13:10:37;95282.22;;;24.61;30.72
6132;BME280;3097;42.692;23.278;2023-09-30T13:13:03;95279.44;;;24.66;31.11
6132;BME280;3097;42.692;23.278;2023-09-30T13:15:29;95275.44;;;24.69;31.54
6132;BME280;3097;42.692;23.278;2023-09-30T13:17:54;95280.59;;;24.74;31.31
6132;BME280;3097;42.692;23.278;2023-09-30T13:20:20;95279.06;;;24.73;31.40
6132;BME280;3097;42.692;23.278;2023-09-30T13:22:45;95281.78;;;24.68;32.29
6132;BME280;3097;42.692;23.278;2023-09-30T13:25:11;95264.19;;;24.55;32.28
6132;BME280;3097;42.692;23.278;2023-09-30T13:27:38;95273.88;;;24.68;32.27
6132;BME280;3097;42.692;23.278;2023-09-30T13:30:06;95277.00;;;24.70;32.57